sensor_id;sensor_type;location;lat;lon;timestamp;P1;durP1;ratioP1;P2;durP2;ratioP2
65597;SDS011;52267;51.984;20.956;2023-09-07T00:01:35;17.20;;;11.10;;
65597;SDS011;52267;51.984;20.956;2023-09-07T00:04:03;16.40;;;10.60;;
65597;SDS011;52267;51.984;20.956;2023-09-07T00:06:30;17.20;;;10.50;;
65597;SDS011;52267;51.984;20.956;2023-09-07T00:08:57;16.10;;;10.50;;
65597;SDS011;52267;51.984;20.956;2023-09-07T00:11:24;14.70;;;10.20;;
65597;SDS011;52267;51.984;20.956;2023-09-07T00:13:51;15.80;;;11.20;;
65597;SDS011;52267;51.984;20.956;2023-09-07T00:16:18;16.70;;;11.10;;
65597;SDS011;52267;51.984;20.956;2023-09-07T00:18:45;16.60;;;11.90;;
65597;SDS011;52267;51.984;20.956;2023-09-07T00:21:12;16.20;;;11.50;;
65597;SDS011;52267;51.984;20.956;2023-09-07T00:23:39;16.20;;;10.90;;
65597;SDS011;52267;51.984;20.956;2023-09-07T00:26:07;18.00;;;10.80;;
65597;SDS011;52267;51.984;20.956;2023-09-07T00:28:35;17.20;;;11.50;;
65597;SDS011;52267;51.984;20.956;2023-09-07T00:31:02;13.10;;;10.40;;
65597;SDS011;52267;51.984;20.956;2023-09-07T00:33:29;14.00;;;10.80;;
65597;SDS011;52267;51.984;20.956;2023-09-07T00:35:56;14.80;;;11.10;;
65597;SDS011;52267;51.984;20.956;2023-09-07T00:38:23;13.80;;;9.90;;
65597;SDS011;52267;51.984;20.956;2023-09-07T00:40:50;17.00;;;11.00;;
65597;SDS011;52267;51.984;20.956;2023-09-07T00:43:17;15.60;;;10.70;;
65597;SDS011;52267;51.984;20.956;2023-09-07T00:45:44;15.00;;;10.70;;
65597;SDS011;52267;51.984;20.956;2023-09-07T00:48:12;16.20;;;10.40;;
65597;SDS011;52267;51.984;20.956;2023-09-07T00:50:40;14.90;;;11.00;;
65597;SDS011;52267;51.984;20.956;2023-09-07T00:53:07;15.90;;;10.90;;
65597;SDS011;52267;51.984;20.956;2023-09-07T00:55:35;14.70;;;10.30;;
65597;SDS011;52267;51.984;20.956;2023-09-07T00:58:05;13.70;;;10.30;;
65597;SDS011;52267;51.984;20.956;2023-09-07T01:00:34;14.30;;;10.50;;
65597;SDS011;52267;51.984;20.956;2023-09-07T01:03:02;16.50;;;10.20;;
65597;SDS011;52267;51.984;20.956;2023-09-07T01:05:43;16.60;;;10.70;;
65597;SDS011;52267;51.984;20.956;2023-09-07T01:08:28;15.00;;;11.30;;
65597;SDS011;52267;51.984;20.956;2023-09-07T01:10:58;16.50;;;11.30;;
65597;SDS011;52267;51.984;20.956;2023-09-07T01:13:25;16.90;;;10.80;;
65597;SDS011;52267;51.984;20.956;2023-09-07T01:15:52;16.40;;;10.90;;
65597;SDS011;52267;51.984;20.956;2023-09-07T01:18:20;17.50;;;10.80;;
65597;SDS011;52267;51.984;20.956;2023-09-07T01:20:48;15.50;;;11.90;;
65597;SDS011;52267;51.984;20.956;2023-09-07T01:23:15;13.60;;;10.50;;
65597;SDS011;52267;51.984;20.956;2023-09-07T01:25:43;17.00;;;10.50;;
65597;SDS011;52267;51.984;20.956;2023-09-07T01:28:10;15.70;;;10.40;;
65597;SDS011;52267;51.984;20.956;2023-09-07T01:30:39;13.40;;;9.90;;
65597;SDS011;52267;51.984;20.956;2023-09-07T01:33:06;14.60;;;10.70;;
65597;SDS011;52267;51.984;20.956;2023-09-07T01:35:36;13.30;;;10.00;;
65597;SDS011;52267;51.984;20.956;2023-09-07T01:38:04;14.40;;;10.60;;
65597;SDS011;52267;51.984;20.956;2023-09-07T01:40:31;13.50;;;10.00;;
65597;SDS011;52267;51.984;20.956;2023-09-07T01:42:58;13.50;;;10.70;;
65597;SDS011;52267;51.984;20.956;2023-09-07T01:45:26;15.20;;;11.60;;
65597;SDS011;52267;51.984;20.956;2023-09-07T01:47:53;13.80;;;10.40;;
65597;SDS011;52267;51.984;20.956;2023-09-07T01:50:20;16.10;;;10.40;;
65597;SDS011;52267;51.984;20.956;2023-09-07T01:52:47;12.80;;;9.90;;
65597;SDS011;52267;51.984;20.956;2023-09-07T01:55:17;14.70;;;9.70;;
65597;SDS011;52267;51.984;20.956;2023-09-07T01:57:44;13.80;;;9.40;;
65597;SDS011;52267;51.984;20.956;2023-09-07T02:00:12;13.40;;;10.50;;
65597;SDS011;52267;51.984;20.956;2023-09-07T02:02:39;12.60;;;9.70;;
65597;SDS011;52267;51.984;20.956;2023-09-07T02:05:06;13.10;;;10.10;;
65597;SDS011;52267;51.984;20.956;2023-09-07T02:07:34;13.30;;;10.00;;
65597;SDS011;52267;51.984;20.956;2023-09-07T02:10:02;12.90;;;10.10;;
65597;SDS011;52267;51.984;20.956;2023-09-07T02:12:32;16.20;;;9.90;;
65597;SDS011;52267;51.984;20.956;2023-09-07T02:15:01;17.00;;;10.30;;
65597;SDS011;52267;51.984;20.956;2023-09-07T02:17:29;15.10;;;10.20;;
65597;SDS011;52267;51.984;20.956;2023-09-07T02:19:56;15.80;;;9.40;;
65597;SDS011;52267;51.984;20.956;2023-09-07T02:22:23;13.40;;;9.90;;
65597;SDS011;52267;51.984;20.956;2023-09-07T02:24:51;15.20;;;10.00;;
65597;SDS011;52267;51.984;20.956;2023-09-07T02:27:18;13.70;;;9.90;;
65597;SDS011;52267;51.984;20.956;2023-09-07T02:29:45;14.60;;;9.00;;
65597;SDS011;52267;51.984;20.956;2023-09-07T02:32:12;13.90;;;10.00;;
65597;SDS011;52267;51.984;20.956;2023-09-07T02:34:39;14.20;;;9.40;;
65597;SDS011;52267;51.984;20.956;2023-09-07T02:37:06;12.90;;;9.20;;
65597;SDS011;52267;51.984;20.956;2023-09-07T02:39:33;13.40;;;9.10;;
65597;SDS011;52267;51.984;20.956;2023-09-07T02:42:00;13.00;;;9.50;;
65597;SDS011;52267;51.984;20.956;2023-09-07T02:44:27;13.30;;;9.80;;
65597;SDS011;52267;51.984;20.956;2023-09-07T02:46:55;13.90;;;10.20;;
65597;SDS011;52267;51.984;20.956;2023-09-07T02:49:22;12.40;;;9.30;;
65597;SDS011;52267;51.984;20.956;2023-09-07T02:51:49;13.70;;;9.70;;
65597;SDS011;52267;51.984;20.956;2023-09-07T02:54:16;14.10;;;9.50;;
65597;SDS011;52267;51.984;20.956;2023-09-07T02:56:43;13.00;;;8.80;;
65597;SDS011;52267;51.984;20.956;2023-09-07T02:59:10;13.20;;;8.40;;
65597;SDS011;52267;51.984;20.956;2023-09-07T03:01:38;11.80;;;9.30;;
65597;SDS011;52267;51.984;20.956;2023-09-07T03:04:06;12.10;;;9.60;;
65597;SDS011;52267;51.984;20.956;2023-09-07T03:06:34;12.10;;;9.00;;
65597;SDS011;52267;51.984;20.956;2023-09-07T03:09:01;11.30;;;9.50;;
65597;SDS011;52267;51.984;20.956;2023-09-07T03:11:28;13.60;;;9.70;;
65597;SDS011;52267;51.984;20.956;2023-09-07T03:14:00;13.10;;;8.80;;
65597;SDS011;52267;51.984;20.956;2023-09-07T03:16:27;11.70;;;8.90;;
65597;SDS011;52267;51.984;20.956;2023-09-07T03:18:54;13.00;;;9.20;;
65597;SDS011;52267;51.984;20.956;2023-09-07T03:21:22;13.70;;;8.70;;
65597;SDS011;52267;51.984;20.956;2023-09-07T03:23:52;13.90;;;9.70;;
65597;SDS011;52267;51.984;20.956;2023-09-07T03:26:19;12.40;;;9.30;;
65597;SDS011;52267;51.984;20.956;2023-09-07T03:28:46;13.60;;;9.70;;
65597;SDS011;52267;51.984;20.956;2023-09-07T03:31:13;11.30;;;8.30;;
65597;SDS011;52267;51.984;20.956;2023-09-07T03:33:40;14.50;;;9.00;;
65597;SDS011;52267;51.984;20.956;2023-09-07T03:36:07;12.20;;;9.40;;
65597;SDS011;52267;51.984;20.956;2023-09-07T03:38:36;11.60;;;8.90;;
65597;SDS011;52267;51.984;20.956;2023-09-07T03:41:03;13.00;;;8.80;;
65597;SDS011;52267;51.984;20.956;2023-09-07T03:43:30;11.80;;;8.70;;
65597;SDS011;52267;51.984;20.956;2023-09-07T03:45:57;14.50;;;8.90;;
65597;SDS011;52267;51.984;20.956;2023-09-07T03:48:25;12.70;;;9.20;;
65597;SDS011;52267;51.984;20.956;2023-09-07T03:50:52;11.50;;;9.00;;
65597;SDS011;52267;51.984;20.956;2023-09-07T03:53:19;11.50;;;8.80;;
65597;SDS011;52267;51.984;20.956;2023-09-07T03:55:46;15.20;;;9.20;;
65597;SDS011;52267;51.984;20.956;2023-09-07T03:58:13;12.60;;;9.50;;
65597;SDS011;52267;51.984;20.956;2023-09-07T04:00:44;14.80;;;9.50;;
65597;SDS011;52267;51.984;20.956;2023-09-07T04:03:11;13.30;;;9.70;;
65597;SDS011;52267;51.984;20.956;2023-09-07T04:05:38;14.10;;;10.10;;
65597;SDS011;52267;51.984;20.956;2023-09-07T04:08:05;12.70;;;8.90;;
65597;SDS011;52267;51.984;20.956;2023-09-07T04:10:37;14.30;;;10.20;;
65597;SDS011;52267;51.984;20.956;2023-09-07T04:13:05;14.10;;;9.90;;
65597;SDS011;52267;51.984;20.956;2023-09-07T04:15:34;14.10;;;10.40;;
65597;SDS011;52267;51.984;20.956;2023-09-07T04:18:06;15.50;;;9.70;;
65597;SDS011;52267;51.984;20.956;2023-09-07T04:20:33;13.00;;;10.10;;
65597;SDS011;52267;51.984;20.956;2023-09-07T04:23:00;12.60;;;9.30;;
65597;SDS011;52267;51.984;20.956;2023-09-07T04:25:28;12.10;;;9.30;;
65597;SDS011;52267;51.984;20.956;2023-09-07T04:27:55;12.50;;;9.10;;
65597;SDS011;52267;51.984;20.956;2023-09-07T04:30:23;13.10;;;8.80;;
65597;SDS011;52267;51.984;20.956;2023-09-07T04:32:50;14.60;;;10.00;;
65597;SDS011;52267;51.984;20.956;2023-09-07T04:35:17;12.60;;;8.90;;
65597;SDS011;52267;51.984;20.956;2023-09-07T04:37:45;15.30;;;10.20;;
65597;SDS011;52267;51.984;20.956;2023-09-07T04:40:13;16.30;;;10.30;;
65597;SDS011;52267;51.984;20.956;2023-09-07T04:42:40;15.60;;;9.70;;
65597;SDS011;52267;51.984;20.956;2023-09-07T04:45:08;16.00;;;9.80;;
65597;SDS011;52267;51.984;20.956;2023-09-07T04:47:35;16.00;;;9.70;;
65597;SDS011;52267;51.984;20.956;2023-09-07T04:50:04;15.60;;;8.90;;
65597;SDS011;52267;51.984;20.956;2023-09-07T04:52:31;11.70;;;9.10;;
65597;SDS011;52267;51.984;20.956;2023-09-07T04:54:58;13.40;;;9.70;;
65597;SDS011;52267;51.984;20.956;2023-09-07T04:57:26;14.00;;;9.20;;
65597;SDS011;52267;51.984;20.956;2023-09-07T04:59:53;16.90;;;9.60;;
65597;SDS011;52267;51.984;20.956;2023-09-07T05:02:20;13.10;;;9.40;;
65597;SDS011;52267;51.984;20.956;2023-09-07T05:04:47;14.50;;;9.70;;
65597;SDS011;52267;51.984;20.956;2023-09-07T05:07:14;15.10;;;9.50;;
65597;SDS011;52267;51.984;20.956;2023-09-07T05:09:42;13.90;;;9.30;;
65597;SDS011;52267;51.984;20.956;2023-09-07T05:12:09;12.50;;;10.00;;
65597;SDS011;52267;51.984;20.956;2023-09-07T05:14:37;12.10;;;9.30;;
65597;SDS011;52267;51.984;20.956;2023-09-07T05:17:04;14.70;;;9.80;;
65597;SDS011;52267;51.984;20.956;2023-09-07T05:19:31;19.00;;;11.30;;
65597;SDS011;52267;51.984;20.956;2023-09-07T05:21:58;15.60;;;9.50;;
65597;SDS011;52267;51.984;20.956;2023-09-07T05:24:25;15.50;;;10.10;;
65597;SDS011;52267;51.984;20.956;2023-09-07T05:26:52;14.20;;;9.50;;
65597;SDS011;52267;51.984;20.956;2023-09-07T05:29:19;12.90;;;9.30;;
65597;SDS011;52267;51.984;20.956;2023-09-07T05:31:48;18.80;;;14.20;;
65597;SDS011;52267;51.984;20.956;2023-09-07T05:34:15;28.70;;;21.00;;
65597;SDS011;52267;51.984;20.956;2023-09-07T05:36:42;16.60;;;11.70;;
65597;SDS011;52267;51.984;20.956;2023-09-07T05:39:09;40.60;;;27.50;;
65597;SDS011;52267;51.984;20.956;2023-09-07T05:41:36;22.80;;;17.00;;
65597;SDS011;52267;51.984;20.956;2023-09-07T05:44:04;15.60;;;10.60;;
65597;SDS011;52267;51.984;20.956;2023-09-07T05:46:31;14.20;;;10.60;;
65597;SDS011;52267;51.984;20.956;2023-09-07T05:48:58;17.20;;;10.50;;
65597;SDS011;52267;51.984;20.956;2023-09-07T05:51:25;14.50;;;10.50;;
65597;SDS011;52267;51.984;20.956;2023-09-07T05:53:54;12.60;;;10.40;;
65597;SDS011;52267;51.984;20.956;2023-09-07T05:56:22;15.90;;;11.00;;
65597;SDS011;52267;51.984;20.956;2023-09-07T05:58:49;13.70;;;10.20;;
65597;SDS011;52267;51.984;20.956;2023-09-07T06:01:16;17.90;;;12.20;;
65597;SDS011;52267;51.984;20.956;2023-09-07T06:03:43;17.80;;;12.30;;
65597;SDS011;52267;51.984;20.956;2023-09-07T06:06:10;13.40;;;10.50;;
65597;SDS011;52267;51.984;20.956;2023-09-07T06:08:37;13.50;;;10.10;;
65597;SDS011;52267;51.984;20.956;2023-09-07T06:11:04;15.80;;;10.40;;
65597;SDS011;52267;51.984;20.956;2023-09-07T06:13:32;14.40;;;11.30;;
65597;SDS011;52267;51.984;20.956;2023-09-07T06:15:59;13.50;;;10.60;;
65597;SDS011;52267;51.984;20.956;2023-09-07T06:18:27;16.10;;;10.60;;
65597;SDS011;52267;51.984;20.956;2023-09-07T06:20:54;15.60;;;10.10;;
65597;SDS011;52267;51.984;20.956;2023-09-07T06:23:22;16.70;;;11.10;;
65597;SDS011;52267;51.984;20.956;2023-09-07T06:25:49;17.10;;;11.50;;
65597;SDS011;52267;51.984;20.956;2023-09-07T06:28:16;17.00;;;11.20;;
65597;SDS011;52267;51.984;20.956;2023-09-07T06:30:43;20.40;;;12.10;;
65597;SDS011;52267;51.984;20.956;2023-09-07T06:33:10;17.80;;;11.80;;
65597;SDS011;52267;51.984;20.956;2023-09-07T06:35:38;15.30;;;11.30;;
65597;SDS011;52267;51.984;20.956;2023-09-07T06:38:05;18.00;;;11.30;;
65597;SDS011;52267;51.984;20.956;2023-09-07T06:40:32;18.80;;;11.00;;
65597;SDS011;52267;51.984;20.956;2023-09-07T06:42:59;16.00;;;11.50;;
65597;SDS011;52267;51.984;20.956;2023-09-07T06:45:27;14.70;;;10.70;;
65597;SDS011;52267;51.984;20.956;2023-09-07T06:47:54;13.20;;;10.70;;
65597;SDS011;52267;51.984;20.956;2023-09-07T06:50:21;16.40;;;11.20;;
65597;SDS011;52267;51.984;20.956;2023-09-07T06:52:48;15.70;;;11.70;;
65597;SDS011;52267;51.984;20.956;2023-09-07T06:55:15;15.00;;;11.20;;
65597;SDS011;52267;51.984;20.956;2023-09-07T06:57:42;18.20;;;12.60;;
65597;SDS011;52267;51.984;20.956;2023-09-07T07:00:10;14.90;;;10.00;;
65597;SDS011;52267;51.984;20.956;2023-09-07T07:02:38;13.20;;;9.00;;
65597;SDS011;52267;51.984;20.956;2023-09-07T07:05:06;12.30;;;9.30;;
65597;SDS011;52267;51.984;20.956;2023-09-07T07:07:33;11.50;;;8.20;;
65597;SDS011;52267;51.984;20.956;2023-09-07T07:10:01;9.90;;;7.80;;
65597;SDS011;52267;51.984;20.956;2023-09-07T07:12:28;11.00;;;8.10;;
65597;SDS011;52267;51.984;20.956;2023-09-07T07:14:55;11.10;;;7.70;;
65597;SDS011;52267;51.984;20.956;2023-09-07T07:17:22;10.30;;;7.30;;
65597;SDS011;52267;51.984;20.956;2023-09-07T07:19:49;9.60;;;7.70;;
65597;SDS011;52267;51.984;20.956;2023-09-07T07:22:16;10.70;;;8.40;;
65597;SDS011;52267;51.984;20.956;2023-09-07T07:24:43;10.60;;;6.90;;
65597;SDS011;52267;51.984;20.956;2023-09-07T07:27:10;9.10;;;6.40;;
65597;SDS011;52267;51.984;20.956;2023-09-07T07:29:37;10.60;;;6.30;;
65597;SDS011;52267;51.984;20.956;2023-09-07T07:32:05;8.10;;;6.20;;
65597;SDS011;52267;51.984;20.956;2023-09-07T07:34:32;7.50;;;5.60;;
65597;SDS011;52267;51.984;20.956;2023-09-07T07:36:59;9.80;;;6.10;;
65597;SDS011;52267;51.984;20.956;2023-09-07T07:39:26;10.40;;;5.90;;
65597;SDS011;52267;51.984;20.956;2023-09-07T07:41:53;7.00;;;5.80;;
65597;SDS011;52267;51.984;20.956;2023-09-07T07:44:21;8.20;;;5.70;;
65597;SDS011;52267;51.984;20.956;2023-09-07T07:46:48;9.00;;;6.10;;
65597;SDS011;52267;51.984;20.956;2023-09-07T07:49:16;7.40;;;5.90;;
65597;SDS011;52267;51.984;20.956;2023-09-07T07:51:43;9.20;;;6.30;;
65597;SDS011;52267;51.984;20.956;2023-09-07T07:54:10;8.90;;;5.60;;
65597;SDS011;52267;51.984;20.956;2023-09-07T07:56:39;11.70;;;5.80;;
65597;SDS011;52267;51.984;20.956;2023-09-07T07:59:06;7.40;;;5.40;;
65597;SDS011;52267;51.984;20.956;2023-09-07T08:01:33;9.10;;;5.10;;
65597;SDS011;52267;51.984;20.956;2023-09-07T08:04:01;9.10;;;5.40;;
65597;SDS011;52267;51.984;20.956;2023-09-07T08:06:28;8.30;;;5.60;;
65597;SDS011;52267;51.984;20.956;2023-09-07T08:08:55;9.50;;;5.40;;
65597;SDS011;52267;51.984;20.956;2023-09-07T08:11:22;7.80;;;5.50;;
65597;SDS011;52267;51.984;20.956;2023-09-07T08:13:49;7.00;;;5.10;;
65597;SDS011;52267;51.984;20.956;2023-09-07T08:16:16;8.20;;;5.10;;
65597;SDS011;52267;51.984;20.956;2023-09-07T08:18:44;7.40;;;5.50;;
65597;SDS011;52267;51.984;20.956;2023-09-07T08:21:14;6.40;;;4.30;;
65597;SDS011;52267;51.984;20.956;2023-09-07T08:23:41;10.50;;;4.40;;
65597;SDS011;52267;51.984;20.956;2023-09-07T08:26:08;8.20;;;4.60;;
65597;SDS011;52267;51.984;20.956;2023-09-07T08:28:36;6.80;;;4.80;;
65597;SDS011;52267;51.984;20.956;2023-09-07T08:31:03;7.30;;;5.10;;
65597;SDS011;52267;51.984;20.956;2023-09-07T08:33:32;7.60;;;5.20;;
65597;SDS011;52267;51.984;20.956;2023-09-07T08:36:02;8.00;;;4.80;;
65597;SDS011;52267;51.984;20.956;2023-09-07T08:38:30;8.40;;;5.40;;
65597;SDS011;52267;51.984;20.956;2023-09-07T08:41:01;6.60;;;4.80;;
65597;SDS011;52267;51.984;20.956;2023-09-07T08:43:42;6.80;;;4.90;;
65597;SDS011;52267;51.984;20.956;2023-09-07T08:46:18;7.30;;;4.60;;
65597;SDS011;52267;51.984;20.956;2023-09-07T08:48:49;6.80;;;4.20;;
65597;SDS011;52267;51.984;20.956;2023-09-07T08:51:18;9.90;;;5.30;;
65597;SDS011;52267;51.984;20.956;2023-09-07T08:53:45;6.70;;;4.40;;
65597;SDS011;52267;51.984;20.956;2023-09-07T08:56:13;5.90;;;3.80;;
65597;SDS011;52267;51.984;20.956;2023-09-07T08:58:40;9.60;;;4.90;;
65597;SDS011;52267;51.984;20.956;2023-09-07T09:01:08;7.20;;;4.80;;
65597;SDS011;52267;51.984;20.956;2023-09-07T09:03:39;8.70;;;4.90;;
65597;SDS011;52267;51.984;20.956;2023-09-07T09:06:06;7.50;;;5.30;;
65597;SDS011;52267;51.984;20.956;2023-09-07T09:08:53;8.20;;;5.00;;
65597;SDS011;52267;51.984;20.956;2023-09-07T09:11:22;6.70;;;4.60;;
65597;SDS011;52267;51.984;20.956;2023-09-07T09:13:52;8.30;;;5.00;;
65597;SDS011;52267;51.984;20.956;2023-09-07T09:16:20;9.70;;;4.90;;
65597;SDS011;52267;51.984;20.956;2023-09-07T09:21:20;7.50;;;4.60;;
65597;SDS011;52267;51.984;20.956;2023-09-07T09:23:50;14.40;;;4.70;;
65597;SDS011;52267;51.984;20.956;2023-09-07T09:26:24;7.40;;;4.70;;
65597;SDS011;52267;51.984;20.956;2023-09-07T09:28:51;8.70;;;4.80;;
65597;SDS011;52267;51.984;20.956;2023-09-07T09:31:20;9.10;;;4.70;;
65597;SDS011;52267;51.984;20.956;2023-09-07T09:33:48;7.30;;;4.40;;
65597;SDS011;52267;51.984;20.956;2023-09-07T09:36:18;8.10;;;4.20;;
65597;SDS011;52267;51.984;20.956;2023-09-07T09:38:48;7.50;;;4.00;;
65597;SDS011;52267;51.984;20.956;2023-09-07T09:41:22;7.90;;;4.60;;
65597;SDS011;52267;51.984;20.956;2023-09-07T09:43:50;5.70;;;3.90;;
65597;SDS011;52267;51.984;20.956;2023-09-07T09:46:18;7.00;;;4.60;;
65597;SDS011;52267;51.984;20.956;2023-09-07T09:48:45;7.50;;;4.90;;
65597;SDS011;52267;51.984;20.956;2023-09-07T09:51:14;7.00;;;4.20;;
65597;SDS011;52267;51.984;20.956;2023-09-07T09:53:45;8.60;;;4.60;;
65597;SDS011;52267;51.984;20.956;2023-09-07T09:56:12;7.10;;;4.50;;
65597;SDS011;52267;51.984;20.956;2023-09-07T09:58:39;9.80;;;5.10;;
65597;SDS011;52267;51.984;20.956;2023-09-07T10:01:07;6.90;;;3.90;;
65597;SDS011;52267;51.984;20.956;2023-09-07T10:03:45;6.30;;;4.50;;
65597;SDS011;52267;51.984;20.956;2023-09-07T10:09:02;5.20;;;4.10;;
65597;SDS011;52267;51.984;20.956;2023-09-07T10:11:34;8.90;;;4.00;;
65597;SDS011;52267;51.984;20.956;2023-09-07T10:14:05;5.70;;;4.40;;
65597;SDS011;52267;51.984;20.956;2023-09-07T10:16:46;6.90;;;3.80;;
65597;SDS011;52267;51.984;20.956;2023-09-07T10:19:19;5.80;;;4.10;;
65597;SDS011;52267;51.984;20.956;2023-09-07T10:21:48;4.60;;;3.70;;
65597;SDS011;52267;51.984;20.956;2023-09-07T10:24:27;6.80;;;4.10;;
65597;SDS011;52267;51.984;20.956;2023-09-07T10:27:11;6.70;;;4.20;;
65597;SDS011;52267;51.984;20.956;2023-09-07T10:29:52;5.50;;;4.20;;
65597;SDS011;52267;51.984;20.956;2023-09-07T10:32:19;8.30;;;4.80;;
65597;SDS011;52267;51.984;20.956;2023-09-07T10:34:46;6.30;;;4.30;;
65597;SDS011;52267;51.984;20.956;2023-09-07T10:37:14;6.30;;;4.20;;
65597;SDS011;52267;51.984;20.956;2023-09-07T10:39:44;4.90;;;4.40;;
65597;SDS011;52267;51.984;20.956;2023-09-07T10:42:24;5.60;;;4.50;;
65597;SDS011;52267;51.984;20.956;2023-09-07T10:44:52;7.90;;;4.60;;
65597;SDS011;52267;51.984;20.956;2023-09-07T10:47:19;8.50;;;4.80;;
65597;SDS011;52267;51.984;20.956;2023-09-07T10:49:47;5.70;;;3.90;;
65597;SDS011;52267;51.984;20.956;2023-09-07T10:52:14;5.90;;;4.00;;
65597;SDS011;52267;51.984;20.956;2023-09-07T10:54:41;7.80;;;4.70;;
65597;SDS011;52267;51.984;20.956;2023-09-07T10:57:12;5.30;;;4.20;;
65597;SDS011;52267;51.984;20.956;2023-09-07T10:59:45;7.50;;;4.50;;
65597;SDS011;52267;51.984;20.956;2023-09-07T11:02:12;7.50;;;4.30;;
65597;SDS011;52267;51.984;20.956;2023-09-07T11:04:41;4.90;;;4.10;;
65597;SDS011;52267;51.984;20.956;2023-09-07T11:07:08;6.20;;;4.40;;
65597;SDS011;52267;51.984;20.956;2023-09-07T11:09:40;6.20;;;4.40;;
65597;SDS011;52267;51.984;20.956;2023-09-07T11:12:12;6.10;;;4.40;;
65597;SDS011;52267;51.984;20.956;2023-09-07T11:14:40;6.00;;;4.40;;
65597;SDS011;52267;51.984;20.956;2023-09-07T11:17:07;5.60;;;4.40;;
65597;SDS011;52267;51.984;20.956;2023-09-07T11:19:35;5.80;;;4.00;;
65597;SDS011;52267;51.984;20.956;2023-09-07T11:22:03;7.60;;;4.70;;
65597;SDS011;52267;51.984;20.956;2023-09-07T11:24:32;5.90;;;4.20;;
65597;SDS011;52267;51.984;20.956;2023-09-07T11:27:00;5.90;;;4.60;;
65597;SDS011;52267;51.984;20.956;2023-09-07T11:29:27;6.00;;;5.00;;
65597;SDS011;52267;51.984;20.956;2023-09-07T11:32:05;8.20;;;5.70;;
65597;SDS011;52267;51.984;20.956;2023-09-07T11:34:33;5.80;;;4.80;;
65597;SDS011;52267;51.984;20.956;2023-09-07T11:37:02;7.20;;;4.60;;
65597;SDS011;52267;51.984;20.956;2023-09-07T11:39:30;7.20;;;5.00;;
65597;SDS011;52267;51.984;20.956;2023-09-07T11:41:57;6.60;;;5.20;;
65597;SDS011;52267;51.984;20.956;2023-09-07T11:44:24;9.90;;;4.80;;
65597;SDS011;52267;51.984;20.956;2023-09-07T11:46:51;7.40;;;4.60;;
65597;SDS011;52267;51.984;20.956;2023-09-07T11:49:19;7.40;;;5.40;;
65597;SDS011;52267;51.984;20.956;2023-09-07T11:51:48;5.70;;;4.20;;
65597;SDS011;52267;51.984;20.956;2023-09-07T11:54:16;8.00;;;4.40;;
65597;SDS011;52267;51.984;20.956;2023-09-07T11:56:43;6.10;;;4.40;;
65597;SDS011;52267;51.984;20.956;2023-09-07T11:59:12;5.50;;;4.40;;
65597;SDS011;52267;51.984;20.956;2023-09-07T12:01:39;6.50;;;4.10;;
65597;SDS011;52267;51.984;20.956;2023-09-07T12:04:06;7.70;;;4.90;;
65597;SDS011;52267;51.984;20.956;2023-09-07T12:06:33;6.30;;;5.00;;
65597;SDS011;52267;51.984;20.956;2023-09-07T12:09:02;5.40;;;4.80;;
65597;SDS011;52267;51.984;20.956;2023-09-07T12:11:30;6.20;;;5.00;;
65597;SDS011;52267;51.984;20.956;2023-09-07T12:13:58;7.60;;;5.30;;
65597;SDS011;52267;51.984;20.956;2023-09-07T12:16:26;7.40;;;5.10;;
65597;SDS011;52267;51.984;20.956;2023-09-07T12:18:54;5.40;;;4.30;;
65597;SDS011;52267;51.984;20.956;2023-09-07T12:21:21;8.20;;;5.00;;
65597;SDS011;52267;51.984;20.956;2023-09-07T12:23:49;5.80;;;4.70;;
65597;SDS011;52267;51.984;20.956;2023-09-07T12:26:16;6.70;;;4.30;;
65597;SDS011;52267;51.984;20.956;2023-09-07T12:28:47;5.80;;;4.00;;
65597;SDS011;52267;51.984;20.956;2023-09-07T12:31:14;5.60;;;4.20;;
65597;SDS011;52267;51.984;20.956;2023-09-07T12:33:42;9.10;;;4.80;;
65597;SDS011;52267;51.984;20.956;2023-09-07T12:36:10;4.90;;;4.10;;
65597;SDS011;52267;51.984;20.956;2023-09-07T12:38:38;5.70;;;4.20;;
65597;SDS011;52267;51.984;20.956;2023-09-07T12:41:05;5.80;;;4.40;;
65597;SDS011;52267;51.984;20.956;2023-09-07T12:43:32;6.40;;;5.10;;
65597;SDS011;52267;51.984;20.956;2023-09-07T12:46:00;8.30;;;6.00;;
65597;SDS011;52267;51.984;20.956;2023-09-07T12:48:27;8.40;;;5.90;;
65597;SDS011;52267;51.984;20.956;2023-09-07T12:50:54;7.80;;;6.10;;
65597;SDS011;52267;51.984;20.956;2023-09-07T12:53:22;6.00;;;5.20;;
65597;SDS011;52267;51.984;20.956;2023-09-07T12:58:22;6.10;;;4.50;;
65597;SDS011;52267;51.984;20.956;2023-09-07T13:00:50;5.50;;;4.10;;
65597;SDS011;52267;51.984;20.956;2023-09-07T13:03:19;5.90;;;4.30;;
65597;SDS011;52267;51.984;20.956;2023-09-07T13:05:47;8.00;;;4.40;;
65597;SDS011;52267;51.984;20.956;2023-09-07T13:08:15;6.60;;;4.50;;
65597;SDS011;52267;51.984;20.956;2023-09-07T13:10:42;5.30;;;3.80;;
65597;SDS011;52267;51.984;20.956;2023-09-07T13:13:09;5.90;;;4.50;;
65597;SDS011;52267;51.984;20.956;2023-09-07T13:15:36;6.00;;;4.10;;
65597;SDS011;52267;51.984;20.956;2023-09-07T13:18:04;4.60;;;3.80;;
65597;SDS011;52267;51.984;20.956;2023-09-07T13:20:31;5.40;;;4.30;;
65597;SDS011;52267;51.984;20.956;2023-09-07T13:22:58;5.20;;;4.40;;
65597;SDS011;52267;51.984;20.956;2023-09-07T13:25:25;5.00;;;4.10;;
65597;SDS011;52267;51.984;20.956;2023-09-07T13:27:52;6.90;;;4.10;;
65597;SDS011;52267;51.984;20.956;2023-09-07T13:30:20;5.80;;;3.60;;
65597;SDS011;52267;51.984;20.956;2023-09-07T13:32:47;6.70;;;3.80;;
65597;SDS011;52267;51.984;20.956;2023-09-07T13:35:14;5.40;;;3.90;;
65597;SDS011;52267;51.984;20.956;2023-09-07T13:37:42;5.60;;;3.90;;
65597;SDS011;52267;51.984;20.956;2023-09-07T13:40:09;6.70;;;4.10;;
65597;SDS011;52267;51.984;20.956;2023-09-07T13:42:37;5.00;;;3.70;;
65597;SDS011;52267;51.984;20.956;2023-09-07T13:45:06;7.50;;;4.00;;
65597;SDS011;52267;51.984;20.956;2023-09-07T13:47:33;6.70;;;4.10;;
65597;SDS011;52267;51.984;20.956;2023-09-07T13:50:01;4.60;;;3.50;;
65597;SDS011;52267;51.984;20.956;2023-09-07T13:52:28;6.30;;;3.80;;
65597;SDS011;52267;51.984;20.956;2023-09-07T13:54:55;4.90;;;3.80;;
65597;SDS011;52267;51.984;20.956;2023-09-07T13:57:22;13.20;;;10.20;;
65597;SDS011;52267;51.984;20.956;2023-09-07T13:59:49;5.40;;;4.10;;
65597;SDS011;52267;51.984;20.956;2023-09-07T14:02:16;5.80;;;3.80;;
65597;SDS011;52267;51.984;20.956;2023-09-07T14:04:44;97.90;;;13.70;;
65597;SDS011;52267;51.984;20.956;2023-09-07T14:07:11;47.10;;;7.10;;
65597;SDS011;52267;51.984;20.956;2023-09-07T14:09:39;6.60;;;4.30;;
65597;SDS011;52267;51.984;20.956;2023-09-07T14:12:06;5.50;;;4.10;;
65597;SDS011;52267;51.984;20.956;2023-09-07T14:14:33;5.50;;;4.20;;
65597;SDS011;52267;51.984;20.956;2023-09-07T14:17:01;5.90;;;4.60;;
65597;SDS011;52267;51.984;20.956;2023-09-07T14:19:28;6.50;;;4.00;;
65597;SDS011;52267;51.984;20.956;2023-09-07T14:21:58;5.60;;;4.50;;
65597;SDS011;52267;51.984;20.956;2023-09-07T14:24:25;7.20;;;4.70;;
65597;SDS011;52267;51.984;20.956;2023-09-07T14:26:53;6.20;;;4.40;;
65597;SDS011;52267;51.984;20.956;2023-09-07T14:29:20;5.30;;;4.30;;
65597;SDS011;52267;51.984;20.956;2023-09-07T14:31:47;5.80;;;4.60;;
65597;SDS011;52267;51.984;20.956;2023-09-07T14:34:14;6.20;;;4.30;;
65597;SDS011;52267;51.984;20.956;2023-09-07T14:36:41;15.30;;;12.30;;